createdAt,value
2018-06-16T00:03:23.238Z,8.52
2018-06-16T00:07:24.053Z,9.22
2018-06-16T00:13:24.714Z,8.29
2018-06-16T00:19:25.555Z,9.19
2018-06-16T00:23:26.226Z,7.35
2018-06-16T00:29:26.990Z,5.9
2018-06-16T00:33:27.876Z,5.54
2018-06-16T00:35:28.567Z,5.63
2018-06-16T00:39:29.320Z,5.85
2018-06-16T00:45:30.090Z,6.46
2018-06-16T00:49:30.729Z,7.42
2018-06-16T00:55:31.564Z,5.6
2018-06-16T01:01:32.402Z,6.05
2018-06-16T01:05:33.149Z,5.73
2018-06-16T01:11:33.874Z,6.73
2018-06-16T01:15:34.684Z,6.74
2018-06-16T01:17:35.392Z,5.71
2018-06-16T01:21:36.077Z,5.39
2018-06-16T01:27:36.774Z,6.92
2018-06-16T01:31:37.500Z,5.53
2018-06-16T01:37:38.246Z,5.94
2018-06-16T01:43:39.009Z,5.33
2018-06-16T01:47:39.907Z,4.34
2018-06-16T01:53:40.572Z,5.71
2018-06-16T01:57:41.358Z,4.99
2018-06-16T02:03:42.024Z,5.14
2018-06-16T02:09:42.832Z,5.94
2018-06-16T02:13:43.733Z,5.23
2018-06-16T02:19:44.511Z,5.72
2018-06-16T02:23:45.213Z,5.35
2018-06-16T02:25:45.968Z,6.24
2018-06-16T02:29:46.861Z,6.4
2018-06-16T02:35:47.556Z,8.21
2018-06-16T02:39:48.389Z,7.86
2018-06-16T02:45:49.086Z,7.82
2018-06-16T02:51:49.835Z,6.53
2018-06-16T02:55:50.593Z,6.5
2018-06-16T03:01:51.366Z,5.66
2018-06-16T03:05:52.276Z,6.21
2018-06-16T03:07:52.992Z,6.85
2018-06-16T03:11:53.630Z,6.4
2018-06-16T03:17:54.335Z,6.13
2018-06-16T03:21:55.088Z,6.02
2018-06-16T03:27:55.810Z,6.4
2018-06-16T03:31:56.520Z,5.97
2018-06-16T03:33:57.223Z,6.48
2018-06-16T03:37:58.019Z,5.93
2018-06-16T03:43:58.927Z,7.05
2018-06-16T03:47:59.884Z,7.18
2018-06-16T03:54:00.596Z,6.36
2018-06-16T04:00:01.760Z,6.11
2018-06-16T04:04:02.495Z,5.7
2018-06-16T04:10:03.304Z,6.63
2018-06-16T04:14:04.130Z,6.75
2018-06-16T04:16:04.893Z,7.41
2018-06-16T04:20:05.640Z,7.65
2018-06-16T04:30:12.555Z,7.59
2018-06-16T04:30:12.761Z,12.26
2018-06-16T04:36:13.680Z,7.06
2018-06-16T04:42:14.551Z,8.19
2018-06-16T04:46:15.212Z,8.2
2018-06-16T04:52:16.009Z,8.84
2018-06-16T04:56:16.866Z,8.48
2018-06-16T05:02:17.558Z,11.23
2018-06-16T05:08:18.317Z,8.14
2018-06-16T05:12:19.200Z,7.53
2018-06-16T05:18:19.921Z,8.28
2018-06-16T05:22:20.799Z,8.15
2018-06-16T05:24:21.453Z,8.61
2018-06-16T05:28:22.248Z,9.01
2018-06-16T05:34:22.954Z,10.59
2018-06-16T05:38:23.688Z,12.22
2018-06-16T05:44:24.759Z,14
2018-06-16T05:50:25.496Z,13.27
2018-06-16T05:54:26.328Z,13.49
2018-06-16T06:00:27.505Z,14.73
2018-06-16T06:04:28.261Z,13.78
2018-06-16T06:06:28.978Z,14.88
2018-06-16T06:10:29.733Z,13.97
2018-06-16T06:16:30.516Z,16.62
2018-06-16T06:20:31.348Z,17.16
2018-06-16T06:26:36.730Z,14.96
2018-06-16T06:30:37.615Z,13.66
2018-06-16T06:32:38.468Z,10.94
2018-06-16T06:36:39.235Z,12.47
2018-06-16T06:42:39.944Z,12.01
2018-06-16T06:46:40.868Z,10.6
2018-06-16T06:52:41.610Z,7.49
2018-06-16T06:58:42.502Z,6.7
2018-06-16T07:02:43.178Z,6.61
2018-06-16T07:08:44.177Z,6.54
2018-06-16T07:12:45.126Z,6.85
2018-06-16T07:18:45.884Z,5.68
2018-06-16T07:24:46.543Z,6.29
2018-06-16T07:28:47.344Z,5.92
2018-06-16T07:34:48.182Z,6.15
2018-06-16T07:38:49.177Z,5.86
2018-06-16T07:40:49.891Z,9.68
2018-06-16T07:44:50.669Z,7.65
2018-06-16T07:50:51.799Z,6.42
2018-06-16T07:54:52.632Z,5.8
2018-06-16T08:00:53.505Z,5.86
2018-06-16T08:06:54.289Z,6.4
2018-06-16T08:10:55.066Z,6.17
2018-06-16T08:16:55.788Z,6.4
2018-06-16T08:20:56.550Z,5.93
2018-06-16T08:22:57.155Z,6.18
2018-06-16T08:26:58.265Z,5.46
2018-06-16T08:32:59.021Z,5.85
2018-06-16T08:36:59.747Z,6.21
2018-06-16T08:43:00.528Z,6.28
2018-06-16T08:47:01.371Z,5.99
2018-06-16T08:49:02.068Z,6.22
2018-06-16T08:53:02.817Z,6.05
2018-06-16T08:59:03.580Z,6.04
2018-06-16T09:03:04.379Z,5.62
2018-06-16T09:09:05.073Z,5.65
2018-06-16T09:15:05.864Z,6.5
2018-06-16T09:19:06.600Z,6.29
2018-06-16T09:25:07.344Z,6.49
2018-06-16T09:29:08.064Z,6.01
2018-06-16T09:31:08.697Z,6.13
2018-06-16T09:35:11.406Z,6.07
2018-06-16T09:41:12.390Z,6.12
2018-06-16T09:45:13.712Z,5.51
2018-06-16T09:51:14.517Z,9.11
2018-06-16T09:57:15.153Z,6.65
2018-06-16T10:01:15.949Z,5.8
2018-06-16T10:07:16.819Z,6.88
2018-06-16T10:11:17.557Z,6.5
2018-06-16T10:17:18.320Z,5.73
2018-06-16T10:23:19.046Z,5.59
2018-06-16T10:27:20.014Z,5.93
2018-06-16T10:33:20.734Z,5.7
2018-06-16T10:37:21.436Z,5.44
2018-06-16T10:39:22.311Z,5.6
2018-06-16T10:43:23.059Z,5.89
2018-06-16T10:49:23.805Z,6.22
2018-06-16T10:53:24.545Z,6.3
2018-06-16T10:59:25.287Z,5.92
2018-06-16T11:05:26.103Z,5.91
2018-06-16T11:09:26.823Z,5.91
2018-06-16T11:15:28.452Z,6.46
2018-06-16T11:19:29.214Z,5.93
2018-06-16T11:21:29.860Z,6.02
2018-06-16T11:25:30.634Z,6.02
2018-06-16T11:31:31.418Z,5.81
2018-06-16T11:35:32.309Z,5.76
2018-06-16T11:41:33.074Z,6.63
2018-06-16T11:47:34.773Z,6.17
2018-06-16T11:51:35.486Z,6.33
2018-06-16T11:57:36.265Z,6.76
2018-06-16T12:01:37.070Z,6.31
2018-06-16T12:07:37.821Z,7.47
2018-06-16T12:13:38.526Z,11.15
2018-06-16T12:17:39.359Z,7.85
2018-06-16T12:23:40.685Z,6.42
2018-06-16T12:27:41.453Z,8.02
2018-06-16T12:29:42.233Z,8.2
2018-06-16T12:33:43.622Z,6.76
2018-06-16T12:39:44.477Z,6.03
2018-06-16T12:43:45.389Z,5.81
2018-06-16T12:49:46.163Z,6.01
2018-06-16T12:55:46.948Z,6.05
2018-06-16T12:59:47.663Z,5.49
2018-06-16T13:05:48.341Z,6.15
2018-06-16T13:09:49.178Z,6.07
2018-06-16T13:11:49.937Z,6.21
2018-06-16T13:15:50.778Z,5.79
2018-06-16T13:21:51.670Z,5.64
2018-06-16T13:25:53.767Z,5.54
2018-06-16T13:31:54.528Z,6.06
2018-06-16T13:35:55.341Z,5.44
2018-06-16T13:37:56.018Z,5.62
2018-06-16T13:41:56.777Z,5.37
2018-06-16T13:47:57.480Z,6
2018-06-16T13:51:58.343Z,4.87
2018-06-16T13:57:59.062Z,5.67
2018-06-16T14:03:59.899Z,5.45
2018-06-16T14:08:00.686Z,5.22
2018-06-16T14:14:01.426Z,5.6
2018-06-16T14:18:02.212Z,5.51
2018-06-16T14:20:02.944Z,5.64
2018-06-16T14:24:03.821Z,5.34
2018-06-16T14:30:04.641Z,5.94
2018-06-16T14:34:05.383Z,4.73
2018-06-16T14:40:06.129Z,5.7
2018-06-16T14:50:16.087Z,5.43
2018-06-16T14:50:16.170Z,4.92
2018-06-16T14:56:17.066Z,6.27
2018-06-16T15:00:18.469Z,5.39
2018-06-16T15:06:19.304Z,5.35
2018-06-16T15:12:19.925Z,5.48
2018-06-16T15:16:20.701Z,5.69
2018-06-16T15:22:21.481Z,6.29
2018-06-16T15:26:22.294Z,6.06
2018-06-16T15:28:22.899Z,5.7
2018-06-16T15:28:22.929Z,5.7
2018-06-16T15:32:23.749Z,5.58
2018-06-16T15:38:24.564Z,5.62
2018-06-16T15:42:25.326Z,6.07
2018-06-16T15:48:26.255Z,6.25
2018-06-16T15:54:27.007Z,6.11
2018-06-16T15:58:27.768Z,6.11
2018-06-16T16:04:28.692Z,6.54
2018-06-16T16:08:29.387Z,5.72
2018-06-16T16:10:30.060Z,8.03
2018-06-16T16:14:30.854Z,12.18
2018-06-16T16:20:31.573Z,6.37
2018-06-16T16:24:32.313Z,6.93
2018-06-16T16:30:33.289Z,6.93
2018-06-16T16:36:34.173Z,6.66
2018-06-16T16:40:34.896Z,6.1
2018-06-16T16:46:35.791Z,7.21
2018-06-16T16:50:36.561Z,7.14
2018-06-16T16:56:37.164Z,6.84
2018-06-16T17:02:38.091Z,7.73
2018-06-16T17:06:38.850Z,6.06
2018-06-16T17:12:39.662Z,7.12
2018-06-16T17:16:40.499Z,6.87
2018-06-16T17:18:41.228Z,6.76
2018-06-16T17:22:42.138Z,6.5
2018-06-16T17:28:42.975Z,7.22
2018-06-16T17:32:43.841Z,6.75
2018-06-16T17:38:44.537Z,6.67
2018-06-16T17:44:45.456Z,7.52
2018-06-16T17:48:46.386Z,8.22
2018-06-16T17:54:47.153Z,7.07
2018-06-16T17:58:47.812Z,7.26
2018-06-16T18:00:51.951Z,6.89
2018-06-16T18:04:52.778Z,7.09
2018-06-16T18:10:53.472Z,6.93
2018-06-16T18:14:54.351Z,6.93
2018-06-16T18:20:55.084Z,6.87
2018-06-16T18:26:56.109Z,7.65
2018-06-16T18:30:57.095Z,7.67
2018-06-16T18:36:57.897Z,8.02
2018-06-16T18:40:58.682Z,7.34
2018-06-16T18:46:59.472Z,7.66
2018-06-16T18:53:00.445Z,7.74
2018-06-16T18:57:01.303Z,6.87
2018-06-16T19:03:02.111Z,7.33
2018-06-16T19:07:02.925Z,7.51
2018-06-16T19:09:03.700Z,7.73
2018-06-16T19:13:04.515Z,7.64
2018-06-16T19:19:05.264Z,8.42
2018-06-16T19:23:06.049Z,8.1
2018-06-16T19:29:06.926Z,7.59
2018-06-16T19:35:07.684Z,8.09
2018-06-16T19:39:08.671Z,7.42
2018-06-16T19:45:09.931Z,7.56
2018-06-16T19:49:10.744Z,6.62
2018-06-16T19:51:11.470Z,9
2018-06-16T19:55:12.276Z,8.86
2018-06-16T20:01:13.105Z,10.17
2018-06-16T20:05:13.795Z,9.26
2018-06-16T20:11:14.490Z,10.25
2018-06-16T20:15:15.861Z,9.73
2018-06-16T20:17:16.656Z,8.77
2018-06-16T20:21:17.450Z,8.51
2018-06-16T20:27:18.375Z,9.62
2018-06-16T20:31:24.663Z,8.69
2018-06-16T20:37:27.779Z,10.62
2018-06-16T20:43:29.795Z,12.21
2018-06-16T20:47:30.809Z,12.13
2018-06-16T20:53:31.582Z,14.52
2018-06-16T20:57:32.680Z,15.39
2018-06-16T21:03:33.711Z,13.78
2018-06-16T21:09:34.565Z,15.19
2018-06-16T21:13:35.303Z,13.3
2018-06-16T21:19:36.158Z,11.47
2018-06-16T21:23:37.126Z,11.5
2018-06-16T21:25:37.857Z,11.14
2018-06-16T21:29:38.690Z,10.89
2018-06-16T21:35:39.383Z,11.53
2018-06-16T21:39:40.278Z,11.5
2018-06-16T21:45:41.020Z,10.46
2018-06-16T21:51:41.922Z,9.6
2018-06-16T21:55:42.729Z,8.45
2018-06-16T22:01:43.500Z,9.42
2018-06-16T22:05:44.220Z,9.5
2018-06-16T22:07:44.970Z,12.25
2018-06-16T22:11:45.725Z,10.93
2018-06-16T22:17:46.453Z,21.26
2018-06-16T22:21:47.339Z,19.51
2018-06-16T22:27:48.208Z,18.95
2018-06-16T22:33:49.041Z,18.5
2018-06-16T22:37:49.780Z,18.43
2018-06-16T22:43:50.622Z,16.34
2018-06-16T22:47:51.431Z,17.42
2018-06-16T22:53:52.269Z,17.45
2018-06-16T22:59:53.092Z,19.41
2018-06-16T23:03:53.891Z,18.18
2018-06-16T23:09:55.157Z,17.48
2018-06-16T23:13:56.032Z,15.43
2018-06-16T23:15:57.179Z,15.26
2018-06-16T23:20:00.814Z,15.6
2018-06-16T23:26:01.693Z,14.38
2018-06-16T23:30:02.653Z,14.74
2018-06-16T23:36:03.238Z,15.06
2018-06-16T23:42:03.988Z,14.94
2018-06-16T23:46:04.907Z,12.83
2018-06-16T23:52:05.769Z,11.04
2018-06-16T23:56:06.634Z,10.45
